sensor_id;sensor_type;location;lat;lon;timestamp;P1;durP1;ratioP1;P2;durP2;ratioP2
77738;SDS011;66904;59.926;30.404;2023-04-25T00:00:12;2.13;;;1.00;;
77738;SDS011;66904;59.926;30.404;2023-04-25T00:05:13;1.27;;;0.95;;
77738;SDS011;66904;59.926;30.404;2023-04-25T00:10:15;1.33;;;0.90;;
77738;SDS011;66904;59.926;30.404;2023-04-25T00:15:16;1.73;;;0.98;;
77738;SDS011;66904;59.926;30.404;2023-04-25T00:20:17;1.90;;;1.10;;
77738;SDS011;66904;59.926;30.404;2023-04-25T00:25:18;2.33;;;0.90;;
77738;SDS011;66904;59.926;30.404;2023-04-25T00:30:19;1.75;;;0.75;;
77738;SDS011;66904;59.926;30.404;2023-04-25T00:35:19;1.83;;;1.00;;
77738;SDS011;66904;59.926;30.404;2023-04-25T00:40:21;1.70;;;1.15;;
77738;SDS011;66904;59.926;30.404;2023-04-25T00:45:21;1.88;;;0.90;;
77738;SDS011;66904;59.926;30.404;2023-04-25T00:50:27;1.60;;;1.02;;
77738;SDS011;66904;59.926;30.404;2023-04-25T00:55:28;1.50;;;0.88;;
77738;SDS011;66904;59.926;30.404;2023-04-25T01:00:28;1.65;;;0.95;;
77738;SDS011;66904;59.926;30.404;2023-04-25T01:05:30;2.08;;;1.27;;
77738;SDS011;66904;59.926;30.404;2023-04-25T01:10:30;1.50;;;0.82;;
77738;SDS011;66904;59.926;30.404;2023-04-25T01:15:31;2.20;;;1.08;;
77738;SDS011;66904;59.926;30.404;2023-04-25T01:20:32;1.02;;;0.65;;
77738;SDS011;66904;59.926;30.404;2023-04-25T01:25:33;1.60;;;0.88;;
77738;SDS011;66904;59.926;30.404;2023-04-25T01:30:34;1.58;;;1.00;;
77738;SDS011;66904;59.926;30.404;2023-04-25T01:35:35;1.70;;;0.90;;
77738;SDS011;66904;59.926;30.404;2023-04-25T01:40:37;1.70;;;1.10;;
77738;SDS011;66904;59.926;30.404;2023-04-25T01:45:43;2.58;;;1.38;;
77738;SDS011;66904;59.926;30.404;2023-04-25T01:50:43;1.58;;;0.98;;
77738;SDS011;66904;59.926;30.404;2023-04-25T01:55:45;1.83;;;0.98;;
77738;SDS011;66904;59.926;30.404;2023-04-25T02:00:46;2.22;;;1.20;;
77738;SDS011;66904;59.926;30.404;2023-04-25T02:05:46;2.08;;;0.90;;
77738;SDS011;66904;59.926;30.404;2023-04-25T02:10:47;1.75;;;1.30;;
77738;SDS011;66904;59.926;30.404;2023-04-25T02:15:47;2.60;;;1.70;;
77738;SDS011;66904;59.926;30.404;2023-04-25T02:20:48;1.77;;;0.90;;
77738;SDS011;66904;59.926;30.404;2023-04-25T02:25:48;1.48;;;0.90;;
77738;SDS011;66904;59.926;30.404;2023-04-25T02:30:50;1.80;;;0.95;;
77738;SDS011;66904;59.926;30.404;2023-04-25T02:35:50;1.80;;;0.85;;
77738;SDS011;66904;59.926;30.404;2023-04-25T02:40:51;1.20;;;0.70;;
77738;SDS011;66904;59.926;30.404;2023-04-25T02:45:51;1.40;;;0.93;;
77738;SDS011;66904;59.926;30.404;2023-04-25T02:50:52;1.35;;;0.80;;
77738;SDS011;66904;59.926;30.404;2023-04-25T02:55:52;1.52;;;0.93;;
77738;SDS011;66904;59.926;30.404;2023-04-25T03:00:53;1.65;;;1.10;;
77738;SDS011;66904;59.926;30.404;2023-04-25T03:05:54;1.70;;;1.02;;
77738;SDS011;66904;59.926;30.404;2023-04-25T03:10:55;1.70;;;1.00;;
77738;SDS011;66904;59.926;30.404;2023-04-25T03:15:55;1.55;;;1.02;;
77738;SDS011;66904;59.926;30.404;2023-04-25T03:20:56;1.48;;;0.90;;
77738;SDS011;66904;59.926;30.404;2023-04-25T03:25:56;2.25;;;1.50;;
77738;SDS011;66904;59.926;30.404;2023-04-25T03:30:57;1.87;;;0.97;;
77738;SDS011;66904;59.926;30.404;2023-04-25T03:35:57;1.60;;;1.02;;
77738;SDS011;66904;59.926;30.404;2023-04-25T03:40:58;2.00;;;1.00;;
77738;SDS011;66904;59.926;30.404;2023-04-25T03:45:58;1.13;;;0.80;;
77738;SDS011;66904;59.926;30.404;2023-04-25T03:50:59;2.42;;;1.20;;
77738;SDS011;66904;59.926;30.404;2023-04-25T03:55:59;1.58;;;0.88;;
77738;SDS011;66904;59.926;30.404;2023-04-25T04:01:00;2.15;;;0.80;;
77738;SDS011;66904;59.926;30.404;2023-04-25T04:06:03;1.25;;;0.70;;
77738;SDS011;66904;59.926;30.404;2023-04-25T04:11:05;1.73;;;0.90;;
77738;SDS011;66904;59.926;30.404;2023-04-25T04:16:06;1.83;;;1.00;;
77738;SDS011;66904;59.926;30.404;2023-04-25T04:21:06;1.40;;;0.70;;
77738;SDS011;66904;59.926;30.404;2023-04-25T04:26:07;1.48;;;0.77;;
77738;SDS011;66904;59.926;30.404;2023-04-25T04:31:08;0.98;;;0.63;;
77738;SDS011;66904;59.926;30.404;2023-04-25T04:36:09;2.63;;;0.88;;
77738;SDS011;66904;59.926;30.404;2023-04-25T04:41:10;2.22;;;0.93;;
77738;SDS011;66904;59.926;30.404;2023-04-25T04:46:10;3.10;;;0.85;;
77738;SDS011;66904;59.926;30.404;2023-04-25T04:51:12;2.17;;;0.88;;
77738;SDS011;66904;59.926;30.404;2023-04-25T04:56:13;2.75;;;0.95;;
77738;SDS011;66904;59.926;30.404;2023-04-25T05:01:13;2.13;;;0.90;;
77738;SDS011;66904;59.926;30.404;2023-04-25T05:06:16;4.18;;;1.77;;
77738;SDS011;66904;59.926;30.404;2023-04-25T05:11:17;2.00;;;0.80;;
77738;SDS011;66904;59.926;30.404;2023-04-25T05:16:19;2.70;;;0.75;;
77738;SDS011;66904;59.926;30.404;2023-04-25T05:21:20;1.08;;;0.60;;
77738;SDS011;66904;59.926;30.404;2023-04-25T05:26:21;1.75;;;0.90;;
77738;SDS011;66904;59.926;30.404;2023-04-25T05:31:21;1.13;;;0.70;;
77738;SDS011;66904;59.926;30.404;2023-04-25T05:36:22;0.88;;;0.52;;
77738;SDS011;66904;59.926;30.404;2023-04-25T05:41:23;1.63;;;0.77;;
77738;SDS011;66904;59.926;30.404;2023-04-25T05:46:23;0.77;;;0.55;;
77738;SDS011;66904;59.926;30.404;2023-04-25T05:51:24;1.05;;;0.60;;
77738;SDS011;66904;59.926;30.404;2023-04-25T05:56:24;1.50;;;0.63;;
77738;SDS011;66904;59.926;30.404;2023-04-25T06:01:25;0.93;;;0.52;;
77738;SDS011;66904;59.926;30.404;2023-04-25T06:06:25;1.30;;;0.70;;
77738;SDS011;66904;59.926;30.404;2023-04-25T06:11:26;1.15;;;0.52;;
77738;SDS011;66904;59.926;30.404;2023-04-25T06:16:27;1.92;;;0.70;;
77738;SDS011;66904;59.926;30.404;2023-04-25T06:21:27;0.90;;;0.50;;
77738;SDS011;66904;59.926;30.404;2023-04-25T06:26:28;1.60;;;0.90;;
77738;SDS011;66904;59.926;30.404;2023-04-25T06:31:28;1.25;;;0.32;;
77738;SDS011;66904;59.926;30.404;2023-04-25T06:36:32;1.08;;;0.70;;
77738;SDS011;66904;59.926;30.404;2023-04-25T06:41:32;1.38;;;0.73;;
77738;SDS011;66904;59.926;30.404;2023-04-25T06:46:33;0.57;;;0.35;;
77738;SDS011;66904;59.926;30.404;2023-04-25T06:51:33;1.02;;;0.55;;
77738;SDS011;66904;59.926;30.404;2023-04-25T06:56:34;0.85;;;0.52;;
77738;SDS011;66904;59.926;30.404;2023-04-25T07:01:35;0.93;;;0.52;;
77738;SDS011;66904;59.926;30.404;2023-04-25T07:06:35;2.00;;;0.82;;
77738;SDS011;66904;59.926;30.404;2023-04-25T07:11:42;0.65;;;0.30;;
77738;SDS011;66904;59.926;30.404;2023-04-25T07:16:42;0.85;;;0.50;;
77738;SDS011;66904;59.926;30.404;2023-04-25T07:21:43;0.85;;;0.43;;
77738;SDS011;66904;59.926;30.404;2023-04-25T07:26:43;0.30;;;0.20;;
77738;SDS011;66904;59.926;30.404;2023-04-25T07:31:44;0.80;;;0.43;;
77738;SDS011;66904;59.926;30.404;2023-04-25T07:36:45;0.90;;;0.50;;
77738;SDS011;66904;59.926;30.404;2023-04-25T07:41:45;0.75;;;0.40;;
77738;SDS011;66904;59.926;30.404;2023-04-25T07:46:46;0.88;;;0.40;;
77738;SDS011;66904;59.926;30.404;2023-04-25T07:51:46;1.02;;;0.45;;
77738;SDS011;66904;59.926;30.404;2023-04-25T07:56:47;0.82;;;0.60;;
77738;SDS011;66904;59.926;30.404;2023-04-25T08:07:35;0.70;;;0.40;;
77738;SDS011;66904;59.926;30.404;2023-04-25T08:12:41;1.00;;;0.50;;
77738;SDS011;66904;59.926;30.404;2023-04-25T08:17:42;0.50;;;0.30;;
77738;SDS011;66904;59.926;30.404;2023-04-25T08:27:54;0.60;;;0.40;;
77738;SDS011;66904;59.926;30.404;2023-04-25T08:32:54;0.65;;;0.38;;
77738;SDS011;66904;59.926;30.404;2023-04-25T08:37:55;0.82;;;0.50;;
77738;SDS011;66904;59.926;30.404;2023-04-25T08:42:59;2.65;;;0.40;;
77738;SDS011;66904;59.926;30.404;2023-04-25T08:48:03;0.95;;;0.45;;
77738;SDS011;66904;59.926;30.404;2023-04-25T08:53:04;0.80;;;0.35;;
77738;SDS011;66904;59.926;30.404;2023-04-25T08:58:10;1.05;;;0.28;;
77738;SDS011;66904;59.926;30.404;2023-04-25T09:03:11;55.85;;;38.47;;
77738;SDS011;66904;59.926;30.404;2023-04-25T09:08:12;121.03;;;69.72;;
77738;SDS011;66904;59.926;30.404;2023-04-25T09:13:13;45.75;;;27.08;;
77738;SDS011;66904;59.926;30.404;2023-04-25T09:18:21;40.95;;;20.85;;
77738;SDS011;66904;59.926;30.404;2023-04-25T09:23:23;22.58;;;13.85;;
77738;SDS011;66904;59.926;30.404;2023-04-25T09:28:24;18.50;;;10.15;;
77738;SDS011;66904;59.926;30.404;2023-04-25T09:33:28;15.05;;;9.13;;
77738;SDS011;66904;59.926;30.404;2023-04-25T09:38:31;12.82;;;8.10;;
77738;SDS011;66904;59.926;30.404;2023-04-25T09:43:32;14.00;;;6.93;;
77738;SDS011;66904;59.926;30.404;2023-04-25T09:48:32;10.57;;;5.82;;
77738;SDS011;66904;59.926;30.404;2023-04-25T09:53:37;9.55;;;5.53;;
77738;SDS011;66904;59.926;30.404;2023-04-25T09:58:40;7.45;;;4.60;;
77738;SDS011;66904;59.926;30.404;2023-04-25T10:03:41;9.02;;;4.63;;
77738;SDS011;66904;59.926;30.404;2023-04-25T10:08:42;8.98;;;3.55;;
77738;SDS011;66904;59.926;30.404;2023-04-25T10:13:44;6.57;;;3.78;;
77738;SDS011;66904;59.926;30.404;2023-04-25T10:18:45;6.00;;;3.25;;
77738;SDS011;66904;59.926;30.404;2023-04-25T10:23:46;4.57;;;3.13;;
77738;SDS011;66904;59.926;30.404;2023-04-25T10:29:00;5.28;;;2.92;;
77738;SDS011;66904;59.926;30.404;2023-04-25T10:34:02;6.00;;;2.72;;
77738;SDS011;66904;59.926;30.404;2023-04-25T10:39:05;3.58;;;2.10;;
77738;SDS011;66904;59.926;30.404;2023-04-25T10:44:09;3.13;;;1.98;;
77738;SDS011;66904;59.926;30.404;2023-04-25T10:49:10;3.10;;;1.70;;
77738;SDS011;66904;59.926;30.404;2023-04-25T10:54:10;3.33;;;1.40;;
77738;SDS011;66904;59.926;30.404;2023-04-25T10:59:15;3.50;;;1.55;;
77738;SDS011;66904;59.926;30.404;2023-04-25T11:09:23;2.63;;;1.35;;
77738;SDS011;66904;59.926;30.404;2023-04-25T11:14:24;2.75;;;1.23;;
77738;SDS011;66904;59.926;30.404;2023-04-25T11:19:26;1.83;;;0.90;;
77738;SDS011;66904;59.926;30.404;2023-04-25T11:24:27;2.53;;;1.20;;
77738;SDS011;66904;59.926;30.404;2023-04-25T11:29:33;2.78;;;1.00;;
77738;SDS011;66904;59.926;30.404;2023-04-25T11:34:35;1.98;;;1.13;;
77738;SDS011;66904;59.926;30.404;2023-04-25T11:39:35;1.83;;;0.98;;
77738;SDS011;66904;59.926;30.404;2023-04-25T11:44:37;2.40;;;1.17;;
77738;SDS011;66904;59.926;30.404;2023-04-25T11:49:39;2.60;;;0.82;;
77738;SDS011;66904;59.926;30.404;2023-04-25T11:54:39;3.63;;;1.20;;
77738;SDS011;66904;59.926;30.404;2023-04-25T11:59:41;1.50;;;0.88;;
77738;SDS011;66904;59.926;30.404;2023-04-25T12:04:41;2.65;;;1.00;;
77738;SDS011;66904;59.926;30.404;2023-04-25T12:09:42;1.60;;;0.82;;
77738;SDS011;66904;59.926;30.404;2023-04-25T12:14:45;1.83;;;1.30;;
77738;SDS011;66904;59.926;30.404;2023-04-25T12:19:48;2.58;;;1.10;;
77738;SDS011;66904;59.926;30.404;2023-04-25T12:24:48;1.73;;;0.98;;
77738;SDS011;66904;59.926;30.404;2023-04-25T12:29:50;1.90;;;1.00;;
77738;SDS011;66904;59.926;30.404;2023-04-25T12:34:52;2.55;;;1.52;;
77738;SDS011;66904;59.926;30.404;2023-04-25T12:39:52;2.75;;;1.02;;
77738;SDS011;66904;59.926;30.404;2023-04-25T12:44:53;1.65;;;0.85;;
77738;SDS011;66904;59.926;30.404;2023-04-25T12:49:53;2.53;;;1.13;;
77738;SDS011;66904;59.926;30.404;2023-04-25T12:54:54;1.38;;;0.90;;
77738;SDS011;66904;59.926;30.404;2023-04-25T12:59:54;1.73;;;1.17;;
77738;SDS011;66904;59.926;30.404;2023-04-25T13:04:55;1.90;;;1.23;;
77738;SDS011;66904;59.926;30.404;2023-04-25T13:09:55;1.95;;;1.17;;
77738;SDS011;66904;59.926;30.404;2023-04-25T13:14:56;2.30;;;1.23;;
77738;SDS011;66904;59.926;30.404;2023-04-25T13:19:57;2.05;;;1.35;;
77738;SDS011;66904;59.926;30.404;2023-04-25T13:24:57;2.28;;;1.25;;
77738;SDS011;66904;59.926;30.404;2023-04-25T13:29:58;2.13;;;1.02;;
77738;SDS011;66904;59.926;30.404;2023-04-25T13:34:59;2.05;;;0.93;;
77738;SDS011;66904;59.926;30.404;2023-04-25T13:40:03;2.55;;;1.42;;
77738;SDS011;66904;59.926;30.404;2023-04-25T13:45:05;1.92;;;1.60;;
77738;SDS011;66904;59.926;30.404;2023-04-25T13:50:06;2.28;;;1.05;;
77738;SDS011;66904;59.926;30.404;2023-04-25T13:55:08;2.65;;;1.20;;
77738;SDS011;66904;59.926;30.404;2023-04-25T14:00:09;1.42;;;0.85;;
77738;SDS011;66904;59.926;30.404;2023-04-25T14:05:10;1.73;;;0.88;;
77738;SDS011;66904;59.926;30.404;2023-04-25T14:10:11;3.60;;;1.00;;
77738;SDS011;66904;59.926;30.404;2023-04-25T14:15:11;1.38;;;0.82;;
77738;SDS011;66904;59.926;30.404;2023-04-25T14:20:12;3.33;;;1.05;;
77738;SDS011;66904;59.926;30.404;2023-04-25T14:25:13;11.80;;;4.22;;
77738;SDS011;66904;59.926;30.404;2023-04-25T14:30:13;11.13;;;4.20;;
77738;SDS011;66904;59.926;30.404;2023-04-25T14:35:14;11.15;;;3.88;;
77738;SDS011;66904;59.926;30.404;2023-04-25T14:40:14;5.20;;;2.13;;
77738;SDS011;66904;59.926;30.404;2023-04-25T14:45:16;4.53;;;1.75;;
77738;SDS011;66904;59.926;30.404;2023-04-25T14:50:17;4.95;;;1.50;;
77738;SDS011;66904;59.926;30.404;2023-04-25T14:55:18;2.10;;;0.77;;
77738;SDS011;66904;59.926;30.404;2023-04-25T15:00:19;2.58;;;1.27;;
77738;SDS011;66904;59.926;30.404;2023-04-25T15:05:20;3.17;;;0.77;;
77738;SDS011;66904;59.926;30.404;2023-04-25T15:10:21;1.90;;;1.20;;
77738;SDS011;66904;59.926;30.404;2023-04-25T15:15:22;1.58;;;1.05;;
77738;SDS011;66904;59.926;30.404;2023-04-25T15:20:24;1.98;;;1.15;;
77738;SDS011;66904;59.926;30.404;2023-04-25T15:25:25;2.72;;;0.80;;
77738;SDS011;66904;59.926;30.404;2023-04-25T15:30:25;2.35;;;1.08;;
77738;SDS011;66904;59.926;30.404;2023-04-25T15:35:26;1.33;;;0.70;;
77738;SDS011;66904;59.926;30.404;2023-04-25T15:40:27;2.35;;;0.82;;
77738;SDS011;66904;59.926;30.404;2023-04-25T15:50:47;1.50;;;0.70;;
77738;SDS011;66904;59.926;30.404;2023-04-25T15:55:48;1.50;;;1.10;;
77738;SDS011;66904;59.926;30.404;2023-04-25T16:00:48;1.58;;;1.02;;
77738;SDS011;66904;59.926;30.404;2023-04-25T16:05:52;1.35;;;0.90;;
77738;SDS011;66904;59.926;30.404;2023-04-25T16:10:52;2.08;;;1.17;;
77738;SDS011;66904;59.926;30.404;2023-04-25T16:15:53;4.13;;;1.10;;
77738;SDS011;66904;59.926;30.404;2023-04-25T16:20:53;1.42;;;1.00;;
77738;SDS011;66904;59.926;30.404;2023-04-25T16:25:54;1.50;;;0.85;;
77738;SDS011;66904;59.926;30.404;2023-04-25T16:30:55;3.00;;;0.93;;
77738;SDS011;66904;59.926;30.404;2023-04-25T16:35:55;2.65;;;0.82;;
77738;SDS011;66904;59.926;30.404;2023-04-25T16:40:56;2.22;;;0.95;;
77738;SDS011;66904;59.926;30.404;2023-04-25T16:45:56;5.13;;;1.10;;
77738;SDS011;66904;59.926;30.404;2023-04-25T16:50:58;4.15;;;1.20;;
77738;SDS011;66904;59.926;30.404;2023-04-25T16:55:59;4.93;;;1.13;;
77738;SDS011;66904;59.926;30.404;2023-04-25T17:01:00;4.40;;;1.30;;
77738;SDS011;66904;59.926;30.404;2023-04-25T17:06:01;6.10;;;1.40;;
77738;SDS011;66904;59.926;30.404;2023-04-25T17:11:02;3.03;;;1.00;;
77738;SDS011;66904;59.926;30.404;2023-04-25T17:16:02;2.30;;;1.05;;
77738;SDS011;66904;59.926;30.404;2023-04-25T17:21:03;8.32;;;5.15;;
77738;SDS011;66904;59.926;30.404;2023-04-25T17:26:05;5.55;;;2.40;;
77738;SDS011;66904;59.926;30.404;2023-04-25T17:31:05;4.03;;;1.70;;
77738;SDS011;66904;59.926;30.404;2023-04-25T17:36:07;3.00;;;1.55;;
77738;SDS011;66904;59.926;30.404;2023-04-25T17:41:08;3.63;;;1.63;;
77738;SDS011;66904;59.926;30.404;2023-04-25T17:46:09;3.08;;;1.90;;
77738;SDS011;66904;59.926;30.404;2023-04-25T17:51:10;3.00;;;1.50;;
77738;SDS011;66904;59.926;30.404;2023-04-25T17:56:10;2.83;;;1.58;;
77738;SDS011;66904;59.926;30.404;2023-04-25T18:01:11;2.50;;;1.48;;
77738;SDS011;66904;59.926;30.404;2023-04-25T18:06:11;2.75;;;1.52;;
77738;SDS011;66904;59.926;30.404;2023-04-25T18:11:12;1.55;;;0.90;;
77738;SDS011;66904;59.926;30.404;2023-04-25T18:16:13;2.15;;;0.95;;
77738;SDS011;66904;59.926;30.404;2023-04-25T18:21:13;4.07;;;1.17;;
77738;SDS011;66904;59.926;30.404;2023-04-25T18:26:14;2.17;;;1.67;;
77738;SDS011;66904;59.926;30.404;2023-04-25T18:31:15;2.05;;;1.10;;
77738;SDS011;66904;59.926;30.404;2023-04-25T18:36:16;3.30;;;1.25;;
77738;SDS011;66904;59.926;30.404;2023-04-25T18:41:16;36.83;;;20.85;;
77738;SDS011;66904;59.926;30.404;2023-04-25T18:46:17;12.82;;;8.30;;
77738;SDS011;66904;59.926;30.404;2023-04-25T18:51:21;6.70;;;3.50;;
77738;SDS011;66904;59.926;30.404;2023-04-25T18:56:22;4.68;;;1.85;;
77738;SDS011;66904;59.926;30.404;2023-04-25T19:01:24;3.97;;;2.28;;
77738;SDS011;66904;59.926;30.404;2023-04-25T19:06:25;2.05;;;1.30;;
77738;SDS011;66904;59.926;30.404;2023-04-25T19:11:28;3.60;;;1.10;;
77738;SDS011;66904;59.926;30.404;2023-04-25T19:16:28;2.35;;;1.30;;
77738;SDS011;66904;59.926;30.404;2023-04-25T19:21:33;1.70;;;1.10;;
77738;SDS011;66904;59.926;30.404;2023-04-25T19:26:34;3.53;;;1.25;;
77738;SDS011;66904;59.926;30.404;2023-04-25T19:31:35;2.40;;;1.10;;
77738;SDS011;66904;59.926;30.404;2023-04-25T19:36:38;59.65;;;14.05;;
77738;SDS011;66904;59.926;30.404;2023-04-25T19:41:40;29.80;;;10.57;;
77738;SDS011;66904;59.926;30.404;2023-04-25T19:46:40;14.48;;;6.05;;
77738;SDS011;66904;59.926;30.404;2023-04-25T19:51:44;15.02;;;5.53;;
77738;SDS011;66904;59.926;30.404;2023-04-25T19:56:45;35.25;;;17.08;;
77738;SDS011;66904;59.926;30.404;2023-04-25T20:01:45;19.13;;;8.70;;
77738;SDS011;66904;59.926;30.404;2023-04-25T20:06:46;24.95;;;9.70;;
77738;SDS011;66904;59.926;30.404;2023-04-25T20:11:46;15.85;;;7.13;;
77738;SDS011;66904;59.926;30.404;2023-04-25T20:16:47;18.95;;;9.82;;
77738;SDS011;66904;59.926;30.404;2023-04-25T20:21:47;20.13;;;11.30;;
77738;SDS011;66904;59.926;30.404;2023-04-25T20:26:48;27.05;;;13.93;;
77738;SDS011;66904;59.926;30.404;2023-04-25T20:31:48;15.20;;;7.97;;
77738;SDS011;66904;59.926;30.404;2023-04-25T20:36:50;12.40;;;5.90;;
77738;SDS011;66904;59.926;30.404;2023-04-25T20:41:51;7.60;;;4.68;;
77738;SDS011;66904;59.926;30.404;2023-04-25T20:46:52;4.93;;;3.45;;
77738;SDS011;66904;59.926;30.404;2023-04-25T20:51:52;10.07;;;2.75;;
77738;SDS011;66904;59.926;30.404;2023-04-25T20:56:53;4.85;;;2.85;;
77738;SDS011;66904;59.926;30.404;2023-04-25T21:01:54;3.42;;;1.90;;
